createdAt,value
2018-11-02T10:02:33.021Z,95.90
2018-11-02T10:05:13.492Z,95.50
2018-11-02T10:07:51.942Z,95.70
2018-11-02T10:10:26.576Z,95.40
2018-11-02T10:13:11.739Z,95.40
2018-11-02T10:15:47.080Z,95.20
2018-11-02T10:18:25.596Z,95.80
2018-11-02T10:21:06.137Z,95.70
2018-11-02T10:24:01.806Z,96.10
2018-11-02T10:26:53.195Z,96.10
2018-11-02T10:29:29.714Z,96.30
2018-11-02T10:32:10.314Z,95.70
2018-11-02T10:35:06.562Z,94.80
2018-11-02T10:40:49.980Z,94.90
2018-11-02T10:43:36.298Z,94.80
2018-11-02T10:46:27.202Z,94.40
2018-11-02T10:49:20.180Z,93.90
2018-11-02T10:52:05.537Z,94.50
2018-11-02T10:54:40.040Z,94.50
2018-11-02T11:03:15.954Z,93.70
2018-11-02T11:05:49.848Z,93.90
2018-11-02T11:08:41.710Z,94.00
2018-11-02T11:11:23.662Z,93.50
2018-11-02T11:13:58.250Z,93.60
2018-11-02T11:16:30.981Z,94.10
2018-11-02T11:19:04.085Z,94.60
2018-11-02T11:21:37.781Z,94.50
2018-11-02T11:26:59.318Z,94.20
2018-11-02T11:29:36.650Z,94.30
2018-11-02T11:32:14.643Z,94.60
2018-11-02T11:34:46.456Z,94.50
2018-11-02T11:37:26.836Z,94.40
2018-11-02T11:40:04.113Z,94.20
2018-11-02T11:42:39.492Z,94.70
2018-11-02T11:45:27.548Z,94.40
2018-11-02T11:48:06.184Z,94.00
2018-11-02T11:50:55.201Z,94.50
2018-11-02T11:58:34.118Z,94.70
2018-11-02T12:01:16.328Z,93.90
2018-11-02T12:03:54.410Z,94.90
2018-11-02T12:06:29.919Z,95.10
2018-11-02T12:09:00.171Z,94.50
2018-11-02T12:14:44.009Z,94.20
2018-11-02T12:17:25.128Z,94.00
2018-11-02T12:20:10.422Z,94.00
2018-11-02T12:22:52.107Z,94.10
2018-11-02T12:25:24.570Z,94.10
2018-11-02T12:28:01.265Z,93.80
2018-11-02T12:30:46.661Z,94.10
2018-11-02T12:33:31.197Z,94.20
2018-11-02T12:36:09.387Z,94.30
2018-11-02T12:38:52.617Z,94.30
2018-11-02T12:41:25.692Z,93.90
2018-11-02T12:44:07.439Z,94.00
2018-11-02T12:46:46.395Z,94.40
2018-11-02T12:49:23.982Z,93.50
2018-11-02T12:54:48.616Z,93.90
2018-11-02T12:57:28.687Z,94.00
2018-11-02T13:00:02.503Z,93.40
2018-11-02T13:02:42.076Z,93.30
2018-11-02T13:08:14.404Z,93.50
2018-11-02T13:10:46.521Z,93.60
2018-11-02T13:13:17.429Z,93.80
2018-11-02T13:15:49.118Z,93.80
2018-11-02T13:18:22.693Z,93.90
2018-11-02T13:20:54.458Z,93.80
2018-11-02T13:23:28.187Z,93.70
2018-11-02T13:26:03.919Z,93.80
2018-11-02T13:28:39.217Z,93.80
2018-11-02T13:31:09.746Z,93.80
2018-11-02T13:33:40.327Z,93.80
2018-11-02T13:36:12.828Z,93.80
2018-11-02T13:38:44.523Z,94.10
2018-11-02T13:41:19.805Z,94.20
2018-11-02T13:43:51.375Z,94.10
2018-11-02T13:46:26.202Z,93.80
2018-11-02T13:49:04.548Z,93.70
2018-11-02T14:04:30.930Z,93.10
2018-11-02T14:07:02.804Z,92.90
2018-11-02T14:14:47.858Z,93.20
2018-11-02T14:17:28.218Z,92.70
2018-11-02T14:20:14.267Z,93.30
2018-11-02T14:22:52.679Z,93.50
2018-11-02T14:25:26.006Z,93.80
2018-11-02T14:27:56.686Z,94.30
2018-11-02T14:30:28.558Z,94.00
2018-11-02T14:32:58.420Z,93.90
2018-11-02T14:35:28.486Z,93.30
2018-11-02T14:37:59.899Z,94.10
2018-11-02T14:40:39.581Z,93.80
2018-11-02T14:43:18.656Z,94.00
2018-11-02T14:45:49.466Z,94.10
2018-11-02T14:48:52.241Z,94.30
2018-11-02T14:51:35.331Z,94.60
2018-11-02T14:54:05.564Z,94.60
2018-11-02T14:56:36.823Z,95.10
2018-11-02T14:59:06.651Z,95.20
2018-11-02T15:01:36.451Z,95.60
2018-11-02T15:04:06.968Z,96.00
2018-11-02T15:06:36.870Z,96.20
2018-11-02T15:09:11.271Z,96.10
2018-11-02T15:11:47.066Z,96.50
2018-11-02T15:14:32.862Z,96.80
2018-11-02T15:17:03.118Z,97.20
2018-11-02T15:19:34.715Z,97.30
2018-11-02T15:22:06.541Z,97.60
2018-11-02T15:24:39.907Z,97.60
2018-11-02T15:27:11.911Z,97.60
2018-11-02T15:29:43.286Z,97.60
2018-11-02T15:32:14.095Z,97.80
2018-11-02T15:35:03.374Z,97.40
2018-11-02T15:44:02.324Z,94.10
2018-11-02T15:46:40.975Z,93.50
2018-11-02T15:49:28.282Z,94.70
2018-11-02T15:55:10.528Z,95.30
2018-11-02T16:05:02.456Z,94.80
2018-11-02T16:07:32.703Z,94.90
2018-11-02T16:10:06.077Z,95.50
2018-11-02T16:12:36.612Z,95.40
2018-11-02T16:15:08.567Z,95.60
2018-11-02T16:17:39.149Z,95.90
2018-11-02T16:20:11.200Z,95.90
2018-11-02T16:23:08.646Z,95.80
2018-11-02T16:28:24.804Z,96.00
2018-11-02T16:31:00.982Z,95.80
2018-11-02T16:33:41.189Z,95.90
2018-11-02T16:36:20.166Z,96.20
2018-11-02T16:38:55.557Z,96.20
2018-11-02T16:41:32.625Z,96.20
2018-11-02T16:44:23.793Z,96.50
2018-11-02T16:47:04.165Z,96.70
2018-11-02T16:49:37.925Z,96.60
2018-11-02T16:56:02.859Z,97.10
2018-11-02T16:58:43.599Z,97.50
2018-11-02T17:04:00.451Z,97.30
2018-11-02T17:06:31.380Z,97.40
2018-11-02T17:09:03.617Z,97.20
2018-11-02T17:11:34.204Z,97.10
2018-11-02T17:14:04.895Z,97.10
2018-11-02T17:16:46.399Z,97.20
2018-11-02T17:19:23.733Z,97.30
2018-11-02T17:21:59.275Z,97.40
2018-11-02T17:24:29.280Z,97.40
2018-11-02T17:26:59.875Z,96.90
2018-11-02T17:29:32.477Z,97.10
2018-11-02T17:32:02.819Z,97.30
2018-11-02T17:34:32.871Z,97.40
2018-11-02T17:37:03.171Z,97.50
2018-11-02T17:39:33.088Z,97.60
2018-11-02T17:42:03.605Z,97.60
2018-11-02T17:44:33.613Z,97.70
2018-11-02T17:47:03.773Z,98.20
2018-11-02T17:49:41.355Z,98.30
2018-11-02T17:52:17.941Z,98.40
2018-11-02T17:54:54.625Z,98.70
2018-11-02T17:57:32.525Z,98.50
2018-11-02T18:00:37.793Z,98.50
2018-11-02T18:06:22.559Z,98.70
2018-11-02T18:09:01.350Z,98.90
2018-11-02T18:11:56.812Z,99.00
2018-11-02T18:18:05.088Z,99.20
2018-11-02T18:20:54.122Z,99.20
2018-11-02T18:23:37.448Z,99.40
2018-11-02T18:26:49.695Z,99.40
2018-11-02T18:32:46.732Z,99.60
2018-11-02T18:41:58.333Z,99.50
2018-11-02T18:44:45.636Z,99.60
2018-11-02T18:47:38.038Z,99.80
2018-11-02T18:50:28.272Z,99.90
2018-11-02T18:53:22.650Z,99.90
2018-11-02T18:57:01.845Z,99.90
2018-11-02T18:59:55.103Z,99.90
2018-11-02T19:02:29.622Z,99.80
2018-11-02T19:07:45.580Z,99.90
2018-11-02T19:10:35.156Z,99.90
2018-11-02T19:13:14.912Z,99.90
2018-11-02T19:15:52.538Z,99.90
2018-11-02T19:22:11.545Z,99.90
2018-11-02T19:24:47.136Z,99.80
2018-11-02T19:27:28.517Z,99.60
2018-11-02T19:30:35.616Z,99.70
2018-11-02T19:33:14.869Z,99.60
2018-11-02T19:36:01.278Z,99.60
2018-11-02T19:38:36.971Z,99.40
2018-11-02T19:41:18.412Z,99.30
2018-11-02T19:47:16.841Z,99.10
2018-11-02T19:49:58.901Z,99.10
2018-11-02T19:52:31.310Z,99.00
2018-11-02T19:55:11.550Z,99.00
2018-11-02T19:58:00.448Z,98.90
2018-11-02T20:00:53.986Z,98.90
2018-11-02T20:07:11.450Z,98.00
2018-11-02T20:09:51.635Z,97.90
2018-11-02T20:12:38.921Z,97.90
2018-11-02T20:15:45.546Z,98.20
2018-11-02T20:18:29.034Z,98.40
2018-11-02T20:21:15.142Z,98.40
2018-11-02T20:24:12.218Z,98.70
2018-11-02T20:27:07.537Z,98.70
2018-11-02T20:30:10.495Z,98.90
2018-11-02T20:33:01.711Z,99.00
2018-11-02T20:35:41.563Z,99.00
2018-11-02T20:38:36.159Z,98.80
2018-11-02T20:41:25.588Z,98.80
2018-11-02T20:43:58.577Z,98.80
2018-11-02T20:46:57.230Z,98.90
2018-11-02T20:52:18.985Z,98.70
2018-11-02T20:57:50.019Z,98.50
2018-11-02T21:00:45.367Z,98.20
2018-11-02T21:03:45.323Z,98.40
2018-11-02T21:09:38.393Z,98.10
2018-11-02T21:21:20.497Z,99.10
2018-11-02T21:29:33.283Z,99.60
2018-11-02T21:32:10.620Z,99.90
2018-11-02T21:34:42.172Z,99.90
2018-11-02T21:37:17.407Z,99.90
2018-11-02T21:39:47.951Z,99.90
2018-11-02T21:42:26.805Z,99.90
2018-11-02T21:45:02.991Z,99.90
2018-11-02T21:47:51.892Z,99.90
2018-11-02T21:50:24.356Z,99.90
2018-11-02T21:53:10.557Z,99.90
2018-11-02T21:55:40.905Z,99.90
2018-11-02T21:58:13.358Z,99.90
2018-11-02T22:00:56.781Z,99.90
2018-11-02T22:03:39.232Z,99.90
2018-11-02T22:06:09.385Z,99.90
2018-11-02T22:08:47.024Z,99.90
2018-11-02T22:11:22.583Z,99.90
2018-11-02T22:13:55.897Z,99.90
2018-11-02T22:16:42.852Z,99.90
2018-11-02T22:19:21.552Z,99.90
2018-11-02T22:27:40.991Z,99.90
2018-11-02T22:30:16.904Z,99.90
2018-11-02T22:33:00.400Z,99.90
2018-11-02T22:38:35.399Z,99.90
2018-11-02T22:41:27.348Z,99.90
2018-11-02T22:44:47.073Z,99.90
2018-11-02T22:47:45.110Z,99.90
2018-11-02T22:50:39.799Z,99.90
2018-11-02T22:53:36.196Z,99.90
2018-11-02T22:56:12.552Z,99.90
2018-11-02T22:58:53.618Z,99.90
2018-11-02T23:01:57.397Z,99.90
2018-11-02T23:04:51.843Z,99.90
2018-11-02T23:07:30.347Z,99.90
2018-11-02T23:10:08.713Z,99.90
2018-11-02T23:15:24.268Z,99.90
2018-11-02T23:18:07.458Z,99.90
2018-11-02T23:20:41.270Z,99.90
2018-11-02T23:23:37.504Z,99.90
2018-11-02T23:29:38.033Z,99.90
2018-11-02T23:32:10.648Z,99.90
2018-11-02T23:35:11.849Z,99.90
2018-11-02T23:37:44.375Z,99.90
2018-11-02T23:40:15.033Z,99.90
2018-11-02T23:42:45.829Z,99.90
2018-11-02T23:45:23.523Z,99.90
2018-11-02T23:48:29.092Z,99.90
2018-11-02T23:51:04.012Z,99.90
2018-11-02T23:53:49.658Z,99.90
2018-11-02T23:56:39.021Z,99.90
2018-11-02T23:59:16.236Z,99.90
